Time;durP1;ratioP1;P1;durP2;ratioP2;P2;SDS_P1;SDS_P2;PMS_P1;PMS_P2;Temp;Humidity;BMP_temperature;BMP_pressure;BME280_temperature;BME280_humidity;BME280_pressure;Samples;Min_cycle;Max_cycle;Signal;HPM_P1;HPM_P2
2023/10/31 00:00:19;;;;;;;7.57;4.00;;;;;;;18.40;62.45;99187.16;4971551;28;98017;-82
2023/10/31 00:02:45;;;;;;;16.88;4.38;;;;;;;18.42;62.70;99190.53;4972776;28;96940;-80
2023/10/31 00:05:14;;;;;;;8.95;4.03;;;;;;;18.39;62.70;99190.81;4978446;28;97521;-82
2023/10/31 00:07:40;;;;;;;14.73;4.85;;;;;;;18.14;63.61;99191.38;4984028;28;100070;-80
2023/10/31 00:10:08;;;;;;;9.18;4.47;;;;;;;18.14;63.91;99189.56;4989759;28;100704;-81
2023/10/31 00:12:38;;;;;;;8.18;4.13;;;;;;;18.03;64.25;99202.22;4984301;28;96799;-79
2023/10/31 00:15:05;;;;;;;10.27;4.07;;;;;;;17.97;65.14;99208.09;4984094;28;98441;-82
2023/10/31 00:17:32;;;;;;;7.85;3.85;;;;;;;18.09;64.71;99196.31;4978398;28;101866;-80
2023/10/31 00:19:59;;;;;;;10.55;4.18;;;;;;;18.20;64.45;99196.16;4980329;28;98770;-79
2023/10/31 00:22:27;;;;;;;10.15;4.15;;;;;;;18.23;64.56;99226.16;4983050;28;96764;-77
2023/10/31 00:24:53;;;;;;;11.93;4.30;;;;;;;17.92;65.27;99220.03;4981978;28;96841;-80
2023/10/31 00:27:19;;;;;;;10.70;3.70;;;;;;;17.96;65.74;99217.09;4979639;28;100970;-79
2023/10/31 00:29:46;;;;;;;7.53;4.20;;;;;;;17.95;65.60;99228.78;4980133;28;99058;-78
2023/10/31 00:32:12;;;;;;;10.25;4.03;;;;;;;17.73;66.48;99219.13;4980058;28;97629;-78
2023/10/31 00:34:39;;;;;;;7.53;4.05;;;;;;;17.80;66.21;99204.25;4980102;28;96821;-83
2023/10/31 00:37:06;;;;;;;8.15;3.80;;;;;;;17.97;65.79;99200.09;4992309;28;98080;-84
2023/10/31 00:39:34;;;;;;;6.78;4.15;;;;;;;17.95;66.29;99194.88;4990251;28;100666;-84
2023/10/31 00:42:01;;;;;;;10.55;3.95;;;;;;;17.88;66.56;99191.91;4993627;28;96720;-84
2023/10/31 00:44:27;;;;;;;8.98;3.58;;;;;;;17.49;68.66;99198.09;4988896;28;98835;-83
2023/10/31 00:46:54;;;;;;;10.75;4.00;;;;;;;17.95;66.81;99180.66;4986885;28;100318;-83
2023/10/31 00:49:20;;;;;;;7.82;4.20;;;;;;;18.09;65.94;99182.94;4981960;28;101521;-83
2023/10/31 00:51:47;;;;;;;9.00;4.30;;;;;;;17.89;67.08;99185.59;4988817;28;96682;-82
2023/10/31 00:54:14;;;;;;;8.73;4.35;;;;;;;17.78;67.60;99179.53;4981576;28;97029;-83
2023/10/31 00:56:41;;;;;;;6.18;3.97;;;;;;;17.75;68.25;99180.63;4980473;28;99610;-83
2023/10/31 00:59:07;;;;;;;11.30;4.03;;;;;;;17.71;68.92;99197.09;4976547;28;99080;-79
2023/10/31 01:01:34;;;;;;;9.23;4.07;;;;;;;17.56;69.26;99195.72;4972422;28;96842;-80
2023/10/31 01:04:00;;;;;;;6.45;3.88;;;;;;;17.53;69.90;99197.69;4975775;28;97289;-78
2023/10/31 01:06:27;;;;;;;8.98;4.35;;;;;;;17.43;69.96;99198.66;4972298;28;101758;-78
2023/10/31 01:08:53;;;;;;;11.20;4.07;;;;;;;17.60;69.87;99198.00;4974648;28;97919;-79
2023/10/31 01:11:20;;;;;;;10.57;3.85;;;;;;;17.53;69.93;99178.16;4976906;28;96802;-78
2023/10/31 01:13:47;;;;;;;6.50;4.05;;;;;;;17.67;69.67;99167.13;4976163;28;96800;-81
2023/10/31 01:16:14;;;;;;;8.63;4.57;;;;;;;17.84;69.00;99157.59;4978276;28;100899;-80
2023/10/31 01:18:40;;;;;;;10.90;4.07;;;;;;;17.73;69.18;99153.22;4974954;28;100499;-79
2023/10/31 01:21:08;;;;;;;7.78;4.15;;;;;;;17.65;69.88;99153.06;4975129;28;96726;-80
2023/10/31 01:23:38;;;;;;;10.43;3.95;;;;;;;17.87;69.76;99147.47;4974959;28;96777;-79
2023/10/31 01:26:05;;;;;;;12.18;4.40;;;;;;;17.93;69.97;99146.91;4971537;28;99568;-84
2023/10/31 01:28:31;;;;;;;11.60;4.45;;;;;;;17.95;69.96;99132.56;4977262;28;101499;-84
2023/10/31 01:30:59;;;;;;;11.63;4.18;;;;;;;18.18;69.33;99124.13;4982806;28;96823;-83
2023/10/31 01:33:26;;;;;;;9.68;4.13;;;;;;;18.05;69.65;99115.53;4974921;28;96781;-83
2023/10/31 01:35:52;;;;;;;12.32;4.47;;;;;;;17.92;70.32;99112.31;4988086;28;100986;-84
2023/10/31 01:38:19;;;;;;;9.95;4.78;;;;;;;17.92;70.83;99113.16;4976177;28;97300;-83
2023/10/31 01:40:49;;;;;;;11.88;4.93;;;;;;;17.73;71.76;99123.81;4980805;28;97160;-83
2023/10/31 01:43:30;;;;;;;8.68;4.18;;;;;;;17.43;73.99;99150.59;4986877;28;96664;-83
2023/10/31 01:45:56;;;;;;;8.50;4.22;;;;;;;17.31;74.24;99144.50;4984455;28;100905;-82
2023/10/31 01:48:25;;;;;;;35.55;4.50;;;;;;;17.26;74.79;99127.22;4984736;28;97190;-81
2023/10/31 01:50:52;;;;;;;10.13;4.43;;;;;;;17.47;73.70;99122.63;4984227;28;97043;-82
2023/10/31 01:53:19;;;;;;;9.10;4.13;;;;;;;17.36;74.57;99120.91;4985480;28;97139;-83
2023/10/31 01:55:47;;;;;;;8.52;4.60;;;;;;;17.43;74.80;99129.22;4984070;28;97948;-81
2023/10/31 01:58:14;;;;;;;8.18;4.72;;;;;;;17.41;74.52;99117.81;4983824;28;100920;-81
2023/10/31 02:00:42;;;;;;;6.65;4.22;;;;;;;17.24;75.76;99110.47;4989797;28;98182;-82
2023/10/31 02:03:09;;;;;;;9.18;4.25;;;;;;;17.47;75.10;99117.28;4988443;28;96854;-83
2023/10/31 02:05:37;;;;;;;6.43;4.13;;;;;;;17.59;74.18;99100.16;4979283;28;98273;-83
2023/10/31 02:08:04;;;;;;;8.15;4.35;;;;;;;17.87;73.34;99083.34;4979286;28;100083;-79
2023/10/31 02:10:30;;;;;;;10.20;5.15;;;;;;;17.52;74.41;99077.66;4972637;28;96845;-79
2023/10/31 02:12:57;;;;;;;10.55;4.90;;;;;;;17.69;74.09;99069.00;4979310;28;96864;-79
2023/10/31 02:15:23;;;;;;;9.48;4.57;;;;;;;17.62;74.64;99075.03;4972302;28;98062;-79
2023/10/31 02:17:50;;;;;;;9.45;4.32;;;;;;;17.70;74.41;99076.03;4973420;28;99236;-79
2023/10/31 02:20:16;;;;;;;11.45;4.85;;;;;;;17.58;74.89;99082.47;4974132;28;96831;-79
2023/10/31 02:22:44;;;;;;;12.52;4.90;;;;;;;17.45;75.66;99060.50;4973865;28;97194;-79
2023/10/31 02:25:18;;;;;;;9.35;4.72;;;;;;;17.85;73.80;99049.75;4967525;28;99089;-80
2023/10/31 02:27:44;;;;;;;12.30;4.50;;;;;;;17.33;76.05;99066.94;4975659;28;99233;-79
2023/10/31 02:30:11;;;;;;;11.70;4.72;;;;;;;17.47;75.60;99054.03;4971995;28;98623;-79
2023/10/31 02:32:38;;;;;;;9.48;4.35;;;;;;;17.37;76.19;99036.31;4973859;28;96886;-79
2023/10/31 02:35:06;;;;;;;7.88;4.10;;;;;;;17.69;75.24;99036.94;4973426;28;98574;-79
2023/10/31 02:37:32;;;;;;;9.60;4.75;;;;;;;17.27;76.46;99041.63;4976326;28;98074;-79
2023/10/31 02:40:00;;;;;;;8.27;5.10;;;;;;;17.34;77.02;99057.94;4970486;28;97656;-80
2023/10/31 02:42:27;;;;;;;9.10;4.15;;;;;;;17.19;77.96;99062.00;4972254;28;96727;-79
2023/10/31 02:44:54;;;;;;;10.57;4.90;;;;;;;17.12;78.06;99065.22;4972111;28;98928;-79
2023/10/31 02:47:21;;;;;;;7.55;4.45;;;;;;;17.12;78.33;99059.03;4972012;28;99272;-79
2023/10/31 02:49:47;;;;;;;12.98;5.32;;;;;;;17.17;77.68;99056.81;4975375;28;96960;-81
2023/10/31 02:52:14;;;;;;;8.20;4.40;;;;;;;17.19;77.51;99054.00;4978089;28;97068;-80
2023/10/31 02:54:40;;;;;;;8.60;4.43;;;;;;;17.39;76.91;99043.19;4977678;28;98880;-80
2023/10/31 02:57:08;;;;;;;8.98;5.05;;;;;;;17.12;77.75;99043.88;4979842;28;98843;-81
2023/10/31 02:59:35;;;;;;;12.07;5.20;;;;;;;17.22;77.35;99041.22;4975474;28;96798;-80
2023/10/31 03:02:01;;;;;;;9.40;5.65;;;;;;;17.19;77.06;99032.66;4980582;28;96862;-80
2023/10/31 03:04:28;;;;;;;10.70;5.13;;;;;;;17.25;77.31;99037.44;4973539;28;98062;-80
2023/10/31 03:06:54;;;;;;;7.38;5.32;;;;;;;17.32;77.09;99022.56;4982941;28;101195;-80
2023/10/31 03:09:21;;;;;;;10.95;5.53;;;;;;;17.21;77.17;99028.00;4977420;28;98533;-81
2023/10/31 03:11:47;;;;;;;9.57;5.43;;;;;;;17.04;77.80;99035.69;4980415;28;96800;-81
2023/10/31 03:14:15;;;;;;;10.93;5.40;;;;;;;17.10;78.10;99029.81;4979173;28;98160;-79
2023/10/31 03:16:41;;;;;;;14.02;5.43;;;;;;;17.17;78.10;99023.94;4976781;28;99061;-79
2023/10/31 03:19:09;;;;;;;8.32;5.30;;;;;;;17.03;78.33;99023.34;4975800;28;96831;-79
2023/10/31 03:21:35;;;;;;;11.75;5.57;;;;;;;17.04;78.62;99025.03;4975997;28;96700;-79
2023/10/31 03:24:02;;;;;;;8.50;5.32;;;;;;;16.84;79.01;99017.94;4974339;28;96896;-79
2023/10/31 03:26:28;;;;;;;12.02;5.68;;;;;;;16.76;79.29;99025.78;4975966;28;98759;-79
2023/10/31 03:28:57;;;;;;;12.40;5.63;;;;;;;16.79;79.70;99022.00;4976681;28;96804;-78
2023/10/31 03:31:25;;;;;;;12.35;5.32;;;;;;;16.81;79.52;99018.19;4976850;28;97293;-78
2023/10/31 03:33:53;;;;;;;9.88;5.40;;;;;;;17.03;78.77;99034.00;4977829;28;99111;-79
2023/10/31 03:36:19;;;;;;;12.10;6.00;;;;;;;16.76;79.12;99031.09;4973789;28;99451;-80
2023/10/31 03:38:46;;;;;;;11.30;5.88;;;;;;;16.84;79.55;99033.09;4976257;28;97404;-79
2023/10/31 03:41:13;;;;;;;9.80;5.43;;;;;;;17.03;78.68;99034.00;4969246;28;97158;-79
2023/10/31 03:43:39;;;;;;;13.77;5.82;;;;;;;16.85;78.87;99035.66;4975696;28;100788;-80
2023/10/31 03:46:06;;;;;;;16.52;5.72;;;;;;;16.85;79.39;99040.13;4973663;28;99077;-78
2023/10/31 03:48:34;;;;;;;10.18;5.22;;;;;;;16.95;79.10;99033.00;4975165;28;96761;-79
2023/10/31 03:51:00;;;;;;;12.63;5.50;;;;;;;16.70;79.59;99035.16;4973459;28;96874;-79
2023/10/31 03:53:26;;;;;;;11.20;5.50;;;;;;;17.06;78.66;99041.75;4975730;28;99200;-79
2023/10/31 03:55:53;;;;;;;8.50;5.50;;;;;;;16.97;79.08;99045.22;4975449;28;97732;-79
2023/10/31 03:58:19;;;;;;;10.50;5.25;;;;;;;17.00;79.04;99036.94;4976099;28;96807;-79
2023/10/31 04:00:45;;;;;;;7.25;5.32;;;;;;;16.92;78.88;99042.13;4975041;28;96795;-79
2023/10/31 04:03:12;;;;;;;12.23;5.68;;;;;;;17.13;78.00;99044.72;4972654;28;99421;-79
2023/10/31 04:05:40;;;;;;;10.70;5.30;;;;;;;17.01;78.60;99043.97;4974789;28;101928;-79
2023/10/31 04:08:05;;;;;;;11.60;5.90;;;;;;;16.90;78.72;99048.56;4972334;28;96827;-79
2023/10/31 04:10:31;;;;;;;;;;;;;;;16.87;79.07;99049.66;4975600;28;99244;-79
2023/10/31 04:12:58;;;;;;;9.52;5.50;;;;;;;16.96;78.70;99046.19;4980392;28;98896;-80
2023/10/31 04:15:24;;;;;;;11.38;5.32;;;;;;;16.79;79.07;99046.00;4975141;28;101271;-79
2023/10/31 04:17:51;;;;;;;10.38;5.35;;;;;;;16.81;79.52;99038.69;4975858;28;98706;-83
2023/10/31 04:20:17;;;;;;;16.60;6.28;;;;;;;16.70;80.11;99044.97;4976788;28;97269;-81
2023/10/31 04:22:45;;;;;;;10.35;5.95;;;;;;;16.73;79.76;99036.72;4970451;28;98880;-81
2023/10/31 04:25:11;;;;;;;12.60;5.95;;;;;;;16.64;80.28;99043.69;4972650;28;99241;-81
2023/10/31 04:27:38;;;;;;;9.52;5.35;;;;;;;16.59;80.46;99042.38;4976823;28;96794;-81
2023/10/31 04:30:06;;;;;;;14.38;6.43;;;;;;;16.23;82.15;99041.91;4974827;28;96992;-81
2023/10/31 04:32:32;;;;;;;11.68;6.40;;;;;;;16.57;81.14;99033.66;4975239;28;102497;-84
2023/10/31 04:34:59;;;;;;;13.52;5.80;;;;;;;16.42;81.52;99033.16;4973202;28;99188;-83
2023/10/31 04:37:26;;;;;;;7.45;5.90;;;;;;;16.49;82.17;99029.00;4982967;28;97021;-83
2023/10/31 04:39:53;;;;;;;10.55;4.93;;;;;;;16.63;81.42;99030.50;4973611;28;97078;-83
2023/10/31 04:42:20;;;;;;;8.77;5.80;;;;;;;16.58;81.32;99028.19;4972559;28;98804;-81
2023/10/31 04:44:47;;;;;;;8.77;5.53;;;;;;;16.73;81.02;99024.25;4977795;28;99089;-80
2023/10/31 04:47:13;;;;;;;12.02;6.68;;;;;;;16.62;81.41;99023.47;4972750;28;96731;-82
2023/10/31 04:49:39;;;;;;;11.18;6.28;;;;;;;16.61;81.83;99022.63;4975760;28;96749;-81
2023/10/31 04:52:06;;;;;;;8.82;6.47;;;;;;;16.65;81.74;99013.38;4978251;28;98108;-81
2023/10/31 04:54:33;;;;;;;9.98;6.65;;;;;;;16.54;82.52;99016.09;4974582;28;99061;-84
2023/10/31 04:57:01;;;;;;;9.00;6.78;;;;;;;16.67;81.79;99019.41;4976034;28;96962;-84
2023/10/31 04:59:27;;;;;;;18.80;7.35;;;;;;;16.77;81.46;99019.47;4971155;28;96805;-84
2023/10/31 05:01:55;;;;;;;12.00;7.10;;;;;;;16.83;81.54;99024.25;4973640;28;101027;-83
2023/10/31 05:04:21;;;;;;;16.52;7.85;;;;;;;16.77;81.91;99024.81;4972710;28;99093;-82
2023/10/31 05:06:48;;;;;;;11.02;7.47;;;;;;;16.89;81.30;99018.38;4979499;28;96808;-84
2023/10/31 05:09:15;;;;;;;9.75;7.40;;;;;;;16.65;82.43;99017.88;4977914;28;96673;-84
2023/10/31 05:11:41;;;;;;;9.55;7.05;;;;;;;16.73;82.19;99010.91;4977649;28;101282;-83
2023/10/31 05:14:11;;;;;;;8.88;6.95;;;;;;;16.60;83.28;99020.09;4972796;28;97541;-84
2023/10/31 05:16:41;;;;;;;9.40;6.90;;;;;;;16.58;83.21;99016.69;4972563;28;96826;-80
2023/10/31 05:19:08;;;;;;;15.20;7.47;;;;;;;16.64;83.26;99029.53;4975879;28;97075;-81
2023/10/31 05:21:34;;;;;;;10.02;7.25;;;;;;;16.79;82.84;99025.50;4977322;28;97931;-81
2023/10/31 05:24:00;;;;;;;11.27;7.15;;;;;;;16.74;82.80;99025.91;4971839;28;100669;-81
2023/10/31 05:26:27;;;;;;;9.80;6.75;;;;;;;16.71;82.81;99020.84;4984289;28;98420;-81
2023/10/31 05:28:54;;;;;;;10.50;6.70;;;;;;;16.65;83.46;99015.22;4973939;28;96929;-81
2023/10/31 05:31:22;;;;;;;9.80;6.82;;;;;;;16.72;83.46;99017.22;4973616;28;98980;-82
2023/10/31 05:33:48;;;;;;;11.23;6.43;;;;;;;16.98;82.34;99022.91;4974606;28;98191;-81
2023/10/31 05:36:22;;;;;;;10.02;6.10;;;;;;;16.96;82.43;99024.00;4974617;28;97046;-81
2023/10/31 05:38:48;;;;;;;8.35;5.63;;;;;;;17.02;82.08;99016.31;4986270;28;96763;-82
2023/10/31 05:41:15;;;;;;;6.80;5.47;;;;;;;16.84;83.29;99017.94;4977126;28;98214;-82
2023/10/31 05:43:42;;;;;;;7.68;5.63;;;;;;;17.00;82.81;99028.13;4974914;28;101510;-81
2023/10/31 05:46:10;;;;;;;6.88;4.93;;;;;;;16.84;82.86;99025.94;4975506;28;97126;-82
2023/10/31 05:48:38;;;;;;;6.68;5.20;;;;;;;16.85;83.85;99016.97;4973119;28;97317;-82
2023/10/31 05:51:05;;;;;;;6.07;4.47;;;;;;;16.86;83.78;99021.34;4973067;28;99395;-81
2023/10/31 05:53:33;;;;;;;6.00;4.55;;;;;;;16.99;83.37;99021.09;4973957;28;102369;-88
2023/10/31 05:56:00;;;;;;;5.90;4.72;;;;;;;16.96;83.51;99024.84;4978328;28;96923;-87
2023/10/31 05:58:27;;;;;;;6.05;4.60;;;;;;;16.93;83.85;99030.47;4975264;28;96739;-82
2023/10/31 06:00:54;;;;;;;4.82;4.28;;;;;;;17.08;83.20;99030.91;4972797;28;101140;-80
2023/10/31 06:03:20;;;;;;;5.10;4.00;;;;;;;17.00;83.55;99031.59;4971584;28;100236;-80
2023/10/31 06:05:48;;;;;;;4.78;3.97;;;;;;;17.02;83.43;99032.31;4970913;28;96892;-80
2023/10/31 06:08:14;;;;;;;7.40;5.55;;;;;;;16.76;84.56;99036.44;4973547;28;96946;-80
2023/10/31 06:10:40;;;;;;;5.75;5.15;;;;;;;16.97;84.11;99041.72;4978534;28;99549;-80
2023/10/31 06:13:07;;;;;;;5.43;4.78;;;;;;;16.98;84.40;99035.41;4974309;28;99075;-80
2023/10/31 06:15:33;;;;;;;4.68;4.13;;;;;;;16.93;84.04;99041.16;4978516;28;96852;-80
2023/10/31 06:18:00;;;;;;;6.15;5.30;;;;;;;16.68;85.55;99036.25;4971723;28;97191;-80
2023/10/31 06:20:27;;;;;;;8.63;5.30;;;;;;;16.56;86.82;99046.16;4975352;28;99917;-80
2023/10/31 06:22:54;;;;;;;8.15;5.40;;;;;;;16.38;88.14;99046.91;4975348;28;98810;-80
2023/10/31 06:25:21;;;;;;;8.88;6.30;;;;;;;16.24;88.73;99043.59;4973961;28;96784;-81
2023/10/31 06:27:47;;;;;;;11.65;6.10;;;;;;;16.47;88.17;99040.78;4985758;28;96990;-81
2023/10/31 06:30:14;;;;;;;7.03;5.60;;;;;;;16.54;87.88;99049.94;4975351;28;101335;-79
2023/10/31 06:32:41;;;;;;;8.32;5.55;;;;;;;16.53;87.98;99056.25;4977247;28;100531;-80
2023/10/31 06:35:08;;;;;;;8.82;6.13;;;;;;;16.61;87.45;99054.63;4975945;28;97133;-80
2023/10/31 06:37:35;;;;;;;7.38;5.75;;;;;;;16.83;87.03;99042.09;4968460;28;96975;-81
2023/10/31 06:40:04;;;;;;;6.10;5.50;;;;;;;16.74;87.19;99065.06;4975583;28;99737;-81
2023/10/31 06:42:31;;;;;;;5.47;4.97;;;;;;;16.91;86.04;99067.13;4971270;28;99440;-81
2023/10/31 06:44:57;;;;;;;7.28;4.90;;;;;;;16.75;87.34;99072.09;4975063;28;96726;-81
2023/10/31 06:47:24;;;;;;;10.15;4.95;;;;;;;16.87;87.12;99073.69;4976959;28;96881;-81
2023/10/31 06:49:50;;;;;;;8.95;5.63;;;;;;;16.94;86.95;99072.16;4976428;28;99028;-82
2023/10/31 06:52:17;;;;;;;5.93;4.20;;;;;;;16.74;87.71;99078.41;4975084;28;98571;-81
2023/10/31 06:54:44;;;;;;;6.70;4.00;;;;;;;16.91;86.96;99071.59;4976091;28;99119;-80
2023/10/31 06:57:12;;;;;;;4.30;3.90;;;;;;;16.99;86.63;99075.28;4966153;28;96916;-79
2023/10/31 06:59:38;;;;;;;5.38;3.65;;;;;;;16.84;87.08;99089.13;4963225;28;99926;-80
2023/10/31 07:02:05;;;;;;;5.88;4.05;;;;;;;16.92;87.61;99090.16;4964267;28;98673;-82
2023/10/31 07:04:32;;;;;;;5.78;4.18;;;;;;;17.04;86.72;99089.06;4967877;28;97461;-81
2023/10/31 07:06:58;;;;;;;11.75;4.15;;;;;;;17.15;86.27;99082.78;4963179;28;99123;-81
2023/10/31 07:09:26;;;;;;;5.82;3.50;;;;;;;17.17;85.85;99087.97;4968771;28;102028;-80
2023/10/31 07:11:53;;;;;;;6.13;3.22;;;;;;;17.13;85.97;99090.91;4971389;28;97723;-83
2023/10/31 07:14:21;;;;;;;3.60;2.67;;;;;;;17.27;85.21;99094.19;4968728;28;97167;-81
2023/10/31 07:16:48;;;;;;;4.68;3.17;;;;;;;17.17;86.38;99112.84;4974076;28;96772;-80
2023/10/31 07:19:15;;;;;;;4.18;2.83;;;;;;;17.11;86.86;99119.56;4969521;28;99744;-82
2023/10/31 07:21:41;;;;;;;3.47;2.25;;;;;;;16.88;88.01;99120.72;4977041;28;98756;-81
2023/10/31 07:24:09;;;;;;;3.67;2.08;;;;;;;16.74;88.63;99129.91;4975423;28;97276;-79
2023/10/31 07:26:35;;;;;;;8.90;1.73;;;;;;;16.40;89.11;99125.78;4969265;28;96937;-79
2023/10/31 07:29:02;;;;;;;2.42;1.70;;;;;;;16.45;87.51;99134.22;4972597;28;97865;-79
2023/10/31 07:31:29;;;;;;;4.95;1.58;;;;;;;16.43;86.72;99129.97;4976133;28;99908;-78
2023/10/31 07:33:56;;;;;;;1.80;1.50;;;;;;;16.53;84.65;99125.56;4975334;28;96883;-80
2023/10/31 07:36:23;;;;;;;2.90;1.10;;;;;;;16.60;84.46;99137.44;4974584;28;102482;-81
2023/10/31 07:38:49;;;;;;;1.73;1.30;;;;;;;16.52;83.76;99139.88;4978553;28;101970;-80
2023/10/31 07:41:16;;;;;;;1.70;1.50;;;;;;;16.50;82.89;99139.16;4974590;28;98893;-80
2023/10/31 07:43:42;;;;;;;3.65;2.63;;;;;;;16.30;83.02;99147.00;4984191;28;96924;-80
2023/10/31 07:46:09;;;;;;;2.05;1.17;;;;;;;16.25;82.54;99151.91;4982592;28;96774;-81
2023/10/31 07:48:37;;;;;;;1.58;1.30;;;;;;;16.24;81.71;99162.69;4973775;28;99130;-80
2023/10/31 07:51:04;;;;;;;1.77;1.20;;;;;;;16.25;80.93;99162.56;4980262;28;99394;-81
2023/10/31 07:54:01;;;;;;;5.20;1.30;;;;;;;16.56;79.15;99162.63;4991551;28;97029;-84
2023/10/31 07:56:28;;;;;;;3.05;1.00;;;;;;;16.38;79.31;99172.19;4988274;28;96758;-83
2023/10/31 07:58:56;;;;;;;2.70;1.08;;;;;;;16.17;79.20;99194.31;4987321;28;100205;-84
2023/10/31 08:01:52;;;;;;;2.55;1.75;;;;;;;15.93;80.00;99191.03;4981603;28;100035;-81
2023/10/31 08:04:29;;;;;;;1.15;0.95;;;;;;;16.48;77.70;99171.25;4914779;28;99098;-78
2023/10/31 08:06:56;;;;;;;2.05;1.27;;;;;;;16.04;77.21;99179.47;4965961;28;98034;-80
2023/10/31 08:09:23;;;;;;;1.77;1.05;;;;;;;16.25;75.94;99185.69;4973984;28;99578;-81
2023/10/31 08:11:53;;;;;;;3.60;0.75;;;;;;;15.89;76.27;99182.41;4975517;28;99208;-80
2023/10/31 08:14:22;;;;;;;1.92;0.60;;;;;;;16.00;76.32;99194.88;4971677;28;96766;-81
2023/10/31 08:17:07;;;;;;;0.95;0.60;;;;;;;15.90;75.93;99197.44;4975480;28;97210;-78
2023/10/31 08:19:35;;;;;;;1.52;0.60;;;;;;;16.23;74.32;99187.63;4971775;28;99686;-79
2023/10/31 08:22:02;;;;;;;1.45;0.60;;;;;;;16.28;74.01;99199.59;4974635;28;97840;-78
2023/10/31 08:24:29;;;;;;;1.80;0.57;;;;;;;16.20;73.67;99204.75;4976227;28;96863;-78
2023/10/31 08:26:55;;;;;;;4.32;0.68;;;;;;;16.35;73.00;99200.78;4974990;28;96736;-78
2023/10/31 08:29:22;;;;;;;1.05;0.32;;;;;;;16.09;72.23;99212.75;4975363;28;97935;-79
2023/10/31 08:31:49;;;;;;;1.17;0.90;;;;;;;15.89;71.37;99221.53;4974172;28;99143;-78
2023/10/31 08:34:15;;;;;;;0.93;0.30;;;;;;;15.97;71.96;99221.75;4972025;28;97285;-79
2023/10/31 08:36:43;;;;;;;0.40;0.40;;;;;;;15.82;72.79;99230.97;4975302;28;98158;-79
2023/10/31 08:39:10;;;;;;;1.85;0.50;;;;;;;15.85;72.68;99233.41;4972223;28;99039;-77
2023/10/31 08:41:37;;;;;;;1.75;0.50;;;;;;;16.27;70.43;99229.91;4972865;28;99452;-77
2023/10/31 08:44:04;;;;;;;5.40;0.73;;;;;;;16.37;68.97;99229.13;4974526;28;96725;-78
2023/10/31 08:46:30;;;;;;;5.35;0.40;;;;;;;16.87;68.04;99236.41;4975303;28;96761;-78
2023/10/31 08:49:38;;;;;;;2.85;0.50;;;;;;;16.79;66.97;99233.56;4972259;28;97907;-79
2023/10/31 08:52:06;;;;;;;17.23;0.60;;;;;;;16.82;65.99;99241.31;4965022;28;100399;-77
2023/10/31 08:54:33;;;;;;;3.70;0.80;;;;;;;16.33;66.26;99231.22;4970911;28;96683;-79
2023/10/31 08:57:00;;;;;;;1.75;0.30;;;;;;;16.20;66.83;99249.19;4974118;28;96993;-79
2023/10/31 08:59:26;;;;;;;6.75;4.07;;;;;;;16.49;66.94;99241.44;4971532;28;99131;-76
2023/10/31 09:01:53;;;;;;;9.80;0.50;;;;;;;16.32;66.72;99243.69;4968718;28;100951;-78
2023/10/31 09:04:20;;;;;;;3.72;0.40;;;;;;;16.05;66.77;99242.44;4967027;28;97936;-78
2023/10/31 09:07:06;;;;;;;1.25;0.30;;;;;;;15.74;67.82;99254.75;4972573;28;96835;-78
2023/10/31 09:09:32;;;;;;;6.10;0.43;;;;;;;16.03;67.29;99249.72;4967826;28;98536;-76
2023/10/31 09:11:59;;;;;;;4.95;0.38;;;;;;;16.44;65.12;99251.66;4970775;28;97513;-78
2023/10/31 09:14:25;;;;;;;3.72;0.40;;;;;;;16.18;65.47;99259.97;4972670;28;97301;-77
2023/10/31 09:16:52;;;;;;;0.47;0.40;;;;;;;16.66;63.97;99268.44;4969639;28;97196;-78
2023/10/31 09:19:18;;;;;;;1.40;0.60;;;;;;;16.87;63.08;99263.09;4967744;28;98924;-76
2023/10/31 09:21:45;;;;;;;2.55;0.43;;;;;;;16.86;61.01;99272.09;4968746;28;99166;-77
2023/10/31 09:24:13;;;;;;;2.47;0.38;;;;;;;16.82;61.52;99275.13;4967930;28;97021;-77
2023/10/31 09:26:43;;;;;;;0.52;0.52;;;;;;;17.00;60.98;99273.59;4969738;28;97170;-78
2023/10/31 09:29:09;;;;;;;6.43;2.08;;;;;;;16.80;61.01;99261.94;4966716;28;99204;-77
2023/10/31 09:31:36;;;;;;;5.93;0.90;;;;;;;16.65;60.89;99274.75;4968696;28;101287;-77
2023/10/31 09:34:03;;;;;;;1.13;0.30;;;;;;;16.32;61.76;99272.16;4968061;28;96934;-77
2023/10/31 09:36:30;;;;;;;6.50;0.50;;;;;;;16.91;61.56;99264.53;4972174;28;96851;-76
2023/10/31 09:38:56;;;;;;;0.20;0.20;;;;;;;16.70;60.27;99282.34;4969175;28;99228;-76
2023/10/31 09:41:24;;;;;;;0.85;0.22;;;;;;;16.84;60.39;99290.03;4971027;28;98899;-77
2023/10/31 09:43:51;;;;;;;3.70;0.40;;;;;;;17.08;59.85;99295.13;4968952;28;97603;-77
2023/10/31 09:46:20;;;;;;;8.05;0.60;;;;;;;16.23;62.63;99300.41;4969699;28;96880;-78
2023/10/31 09:48:47;;;;;;;1.80;0.38;;;;;;;16.05;63.16;99306.38;4971330;28;99266;-76
2023/10/31 09:51:14;;;;;;;1.90;0.45;;;;;;;15.90;64.48;99311.13;4971817;28;100705;-75
2023/10/31 09:53:43;;;;;;;2.97;1.58;;;;;;;16.22;62.50;99303.19;4972252;28;97609;-76
2023/10/31 09:56:10;;;;;;;2.25;1.00;;;;;;;16.60;61.74;99308.94;4971297;28;96827;-76
2023/10/31 09:58:39;;;;;;;2.58;1.88;;;;;;;16.90;60.55;99316.22;4972005;28;99238;-77
2023/10/31 10:01:11;;;;;;;2.28;0.80;;;;;;;17.27;59.70;99303.25;4967523;28;99440;-76
2023/10/31 10:03:44;;;;;;;0.80;0.55;;;;;;;17.47;58.36;99318.41;4971145;28;96817;-78
2023/10/31 10:06:11;;;;;;;1.98;0.57;;;;;;;16.98;58.74;99316.41;4969917;28;97210;-77
2023/10/31 10:08:38;;;;;;;2.58;0.60;;;;;;;17.16;59.39;99323.81;4970550;28;99561;-78
2023/10/31 10:11:06;;;;;;;1.42;0.50;;;;;;;17.24;58.89;99329.38;4965465;28;98081;-77
2023/10/31 10:13:33;;;;;;;1.60;0.70;;;;;;;16.77;60.02;99328.88;4968636;28;97320;-76
2023/10/31 10:16:01;;;;;;;8.43;0.93;;;;;;;16.52;60.29;99323.84;4965823;28;97681;-78
2023/10/31 10:18:28;;;;;;;19.23;1.55;;;;;;;16.50;62.45;99337.31;4969000;28;98991;-78
2023/10/31 10:20:56;;;;;;;2.20;1.10;;;;;;;16.81;60.67;99332.97;4971711;28;99128;-79
2023/10/31 10:23:23;;;;;;;1.30;0.73;;;;;;;16.78;60.62;99341.25;4973011;28;96947;-78
2023/10/31 10:25:50;;;;;;;1.60;0.60;;;;;;;17.01;60.56;99340.16;4973504;28;97518;-76
2023/10/31 10:28:19;;;;;;;2.85;1.40;;;;;;;17.45;59.18;99332.88;4971545;28;97578;-78
2023/10/31 10:30:46;;;;;;;4.25;1.23;;;;;;;17.64;58.40;99338.34;4971033;28;98947;-78
2023/10/31 10:33:15;;;;;;;5.40;0.88;;;;;;;17.08;59.00;99336.00;4970813;28;96827;-79
2023/10/31 10:35:42;;;;;;;1.40;0.70;;;;;;;17.19;59.59;99334.25;4970499;28;97318;-78
2023/10/31 10:38:13;;;;;;;2.10;0.75;;;;;;;17.58;58.26;99328.16;4971287;28;99975;-78
2023/10/31 10:40:42;;;;;;;1.25;0.70;;;;;;;17.21;58.71;99341.13;4970225;28;101669;-78
2023/10/31 10:43:14;;;;;;;0.98;0.70;;;;;;;16.81;60.01;99340.97;4970528;28;97017;-74
2023/10/31 10:45:43;;;;;;;4.00;0.98;;;;;;;17.19;59.26;99351.13;4971260;28;96795;-74
2023/10/31 10:48:12;;;;;;;3.80;1.10;;;;;;;17.56;58.10;99335.47;4970418;28;97953;-74
2023/10/31 10:50:43;;;;;;;1.00;0.75;;;;;;;17.50;57.50;99331.50;4968770;28;99183;-75
2023/10/31 10:53:18;;;;;;;1.38;0.95;;;;;;;17.39;57.79;99322.72;4970482;28;97292;-75
2023/10/31 10:55:47;;;;;;;10.45;2.22;;;;;;;17.37;56.96;99316.66;4968243;28;97150;-74
2023/10/31 10:58:23;;;;;;;4.85;0.90;;;;;;;17.57;57.38;99320.28;4966889;28;99562;-74
2023/10/31 11:00:51;;;;;;;4.45;1.15;;;;;;;17.28;57.34;99309.44;4970770;28;99809;-78
2023/10/31 11:03:20;;;;;;;1.60;0.65;;;;;;;17.69;56.57;99320.09;4969096;28;98395;-78
2023/10/31 11:05:48;;;;;;;0.77;0.77;;;;;;;17.63;56.54;99312.63;4971356;28;97140;-78
2023/10/31 11:08:16;;;;;;;1.38;0.95;;;;;;;17.77;55.53;99314.94;4967888;28;97870;-78
2023/10/31 11:10:43;;;;;;;1.48;1.10;;;;;;;17.59;56.54;99318.34;4967691;28;98675;-78
2023/10/31 11:13:11;;;;;;;5.75;1.08;;;;;;;17.49;56.78;99320.94;4974657;28;97364;-78
2023/10/31 11:15:39;;;;;;;6.22;1.10;;;;;;;17.23;56.42;99311.66;4972126;28;96737;-77
2023/10/31 11:18:06;;;;;;;1.83;0.90;;;;;;;17.13;57.49;99312.44;4973775;28;98121;-77
2023/10/31 11:20:33;;;;;;;4.47;1.35;;;;;;;17.30;57.12;99328.84;4973012;28;98815;-77
2023/10/31 11:23:06;;;;;;;5.45;1.02;;;;;;;16.94;58.11;99320.28;4970771;28;97569;-78
2023/10/31 11:25:33;;;;;;;6.38;1.17;;;;;;;17.20;57.93;99331.44;4970242;28;96935;-79
2023/10/31 11:28:13;;;;;;;1.55;1.10;;;;;;;17.59;56.45;99327.16;4973314;28;99180;-77
2023/10/31 11:30:41;;;;;;;1.52;0.98;;;;;;;17.67;56.98;99332.72;4973366;28;99077;-80